sensor_id;sensor_type;location;lat;lon;timestamp;temperature;humidity
25504;DHT22;13410;52.114;5.718;2024-01-16T00:01:32;5.50;99.90
25504;DHT22;13410;52.114;5.718;2024-01-16T00:03:57;5.50;99.90
25504;DHT22;13410;52.114;5.718;2024-01-16T00:06:23;5.50;99.90
25504;DHT22;13410;52.114;5.718;2024-01-16T00:08:48;5.60;99.90
25504;DHT22;13410;52.114;5.718;2024-01-16T00:11:14;5.50;99.90
25504;DHT22;13410;52.114;5.718;2024-01-16T00:13:40;5.50;99.90
25504;DHT22;13410;52.114;5.718;2024-01-16T00:16:05;5.60;99.90
25504;DHT22;13410;52.114;5.718;2024-01-16T00:18:32;5.70;99.90
25504;DHT22;13410;52.114;5.718;2024-01-16T00:21:00;5.80;99.90
25504;DHT22;13410;52.114;5.718;2024-01-16T00:23:27;5.90;99.90
25504;DHT22;13410;52.114;5.718;2024-01-16T00:25:53;5.80;99.90
25504;DHT22;13410;52.114;5.718;2024-01-16T00:28:18;5.70;99.90
25504;DHT22;13410;52.114;5.718;2024-01-16T00:30:45;5.70;99.90
25504;DHT22;13410;52.114;5.718;2024-01-16T00:33:10;5.70;99.90
25504;DHT22;13410;52.114;5.718;2024-01-16T00:35:37;5.90;99.90
25504;DHT22;13410;52.114;5.718;2024-01-16T00:38:03;5.90;99.90
25504;DHT22;13410;52.114;5.718;2024-01-16T00:40:29;6.00;99.90
25504;DHT22;13410;52.114;5.718;2024-01-16T00:42:54;6.00;99.90
25504;DHT22;13410;52.114;5.718;2024-01-16T00:45:20;6.00;99.90
25504;DHT22;13410;52.114;5.718;2024-01-16T00:47:46;6.20;99.90
25504;DHT22;13410;52.114;5.718;2024-01-16T00:50:12;6.20;99.90
25504;DHT22;13410;52.114;5.718;2024-01-16T00:52:38;6.10;99.90
25504;DHT22;13410;52.114;5.718;2024-01-16T00:55:04;6.10;99.90
25504;DHT22;13410;52.114;5.718;2024-01-16T00:57:30;6.00;99.90
25504;DHT22;13410;52.114;5.718;2024-01-16T00:59:55;6.00;99.90
25504;DHT22;13410;52.114;5.718;2024-01-16T01:02:21;5.80;99.90
25504;DHT22;13410;52.114;5.718;2024-01-16T01:04:47;5.80;99.90
25504;DHT22;13410;52.114;5.718;2024-01-16T01:07:13;5.70;99.90
25504;DHT22;13410;52.114;5.718;2024-01-16T01:09:40;5.60;99.90
25504;DHT22;13410;52.114;5.718;2024-01-16T01:12:06;5.50;99.90
25504;DHT22;13410;52.114;5.718;2024-01-16T01:14:31;5.50;99.90
25504;DHT22;13410;52.114;5.718;2024-01-16T01:16:57;5.40;99.90
25504;DHT22;13410;52.114;5.718;2024-01-16T01:19:23;5.50;99.90
25504;DHT22;13410;52.114;5.718;2024-01-16T01:21:49;5.50;99.90
25504;DHT22;13410;52.114;5.718;2024-01-16T01:24:15;5.60;99.90
25504;DHT22;13410;52.114;5.718;2024-01-16T01:26:43;5.30;99.90
25504;DHT22;13410;52.114;5.718;2024-01-16T01:29:09;5.30;99.90
25504;DHT22;13410;52.114;5.718;2024-01-16T01:31:35;5.30;99.90
25504;DHT22;13410;52.114;5.718;2024-01-16T01:34:01;5.40;99.90
25504;DHT22;13410;52.114;5.718;2024-01-16T01:36:27;5.30;99.90
25504;DHT22;13410;52.114;5.718;2024-01-16T01:38:52;5.20;99.90
25504;DHT22;13410;52.114;5.718;2024-01-16T01:41:18;5.20;99.90
25504;DHT22;13410;52.114;5.718;2024-01-16T01:43:44;5.40;99.90
25504;DHT22;13410;52.114;5.718;2024-01-16T01:46:13;5.30;99.90
25504;DHT22;13410;52.114;5.718;2024-01-16T01:48:44;5.20;99.90
25504;DHT22;13410;52.114;5.718;2024-01-16T01:51:12;5.00;99.90
25504;DHT22;13410;52.114;5.718;2024-01-16T01:53:39;5.10;99.90
25504;DHT22;13410;52.114;5.718;2024-01-16T01:56:09;5.00;99.90
25504;DHT22;13410;52.114;5.718;2024-01-16T01:58:36;5.00;99.90
25504;DHT22;13410;52.114;5.718;2024-01-16T02:01:04;5.10;99.90
25504;DHT22;13410;52.114;5.718;2024-01-16T02:03:35;5.10;99.90
25504;DHT22;13410;52.114;5.718;2024-01-16T02:06:04;5.10;99.90
25504;DHT22;13410;52.114;5.718;2024-01-16T02:08:30;5.10;99.90
25504;DHT22;13410;52.114;5.718;2024-01-16T02:10:57;5.10;99.90
25504;DHT22;13410;52.114;5.718;2024-01-16T02:13:22;5.10;99.90
25504;DHT22;13410;52.114;5.718;2024-01-16T02:15:49;5.10;99.90
25504;DHT22;13410;52.114;5.718;2024-01-16T02:18:15;5.10;99.90
25504;DHT22;13410;52.114;5.718;2024-01-16T02:20:42;5.20;99.90
25504;DHT22;13410;52.114;5.718;2024-01-16T02:23:07;5.20;99.90
25504;DHT22;13410;52.114;5.718;2024-01-16T02:25:34;5.20;99.90
25504;DHT22;13410;52.114;5.718;2024-01-16T02:28:01;5.30;99.90
25504;DHT22;13410;52.114;5.718;2024-01-16T02:30:27;5.20;99.90
25504;DHT22;13410;52.114;5.718;2024-01-16T02:32:53;5.10;99.90
25504;DHT22;13410;52.114;5.718;2024-01-16T02:35:18;5.00;99.90
25504;DHT22;13410;52.114;5.718;2024-01-16T02:37:44;5.10;99.90
25504;DHT22;13410;52.114;5.718;2024-01-16T02:40:10;5.00;99.90
25504;DHT22;13410;52.114;5.718;2024-01-16T02:42:36;4.70;99.90
25504;DHT22;13410;52.114;5.718;2024-01-16T02:45:04;4.80;99.90
25504;DHT22;13410;52.114;5.718;2024-01-16T02:47:30;4.80;99.90
25504;DHT22;13410;52.114;5.718;2024-01-16T02:49:55;4.80;99.90
25504;DHT22;13410;52.114;5.718;2024-01-16T02:52:21;5.00;99.90
25504;DHT22;13410;52.114;5.718;2024-01-16T02:54:46;5.00;99.90
25504;DHT22;13410;52.114;5.718;2024-01-16T02:57:12;5.20;99.90
25504;DHT22;13410;52.114;5.718;2024-01-16T02:59:38;5.20;99.90
25504;DHT22;13410;52.114;5.718;2024-01-16T03:02:03;5.30;99.90
25504;DHT22;13410;52.114;5.718;2024-01-16T03:04:29;5.40;99.90
25504;DHT22;13410;52.114;5.718;2024-01-16T03:06:55;5.50;99.90
25504;DHT22;13410;52.114;5.718;2024-01-16T03:09:21;5.60;99.90
25504;DHT22;13410;52.114;5.718;2024-01-16T03:11:46;5.60;99.90
25504;DHT22;13410;52.114;5.718;2024-01-16T03:14:12;5.60;99.90
25504;DHT22;13410;52.114;5.718;2024-01-16T03:16:40;5.70;99.90
25504;DHT22;13410;52.114;5.718;2024-01-16T03:19:06;5.60;99.90
25504;DHT22;13410;52.114;5.718;2024-01-16T03:21:31;5.70;99.90
25504;DHT22;13410;52.114;5.718;2024-01-16T03:23:57;5.60;99.90
25504;DHT22;13410;52.114;5.718;2024-01-16T03:26:23;5.70;99.90
25504;DHT22;13410;52.114;5.718;2024-01-16T03:28:48;5.60;99.90
25504;DHT22;13410;52.114;5.718;2024-01-16T03:31:14;5.60;99.90
25504;DHT22;13410;52.114;5.718;2024-01-16T03:33:40;5.70;99.90
25504;DHT22;13410;52.114;5.718;2024-01-16T03:36:08;5.80;99.90
25504;DHT22;13410;52.114;5.718;2024-01-16T03:38:35;5.80;99.90
25504;DHT22;13410;52.114;5.718;2024-01-16T03:41:02;5.80;99.90
25504;DHT22;13410;52.114;5.718;2024-01-16T03:43:29;5.90;99.90
25504;DHT22;13410;52.114;5.718;2024-01-16T03:45:57;5.80;99.90
25504;DHT22;13410;52.114;5.718;2024-01-16T03:48:23;6.00;99.90
25504;DHT22;13410;52.114;5.718;2024-01-16T03:50:49;5.80;99.90
25504;DHT22;13410;52.114;5.718;2024-01-16T03:53:14;5.90;99.90
25504;DHT22;13410;52.114;5.718;2024-01-16T03:55:40;5.50;99.90
25504;DHT22;13410;52.114;5.718;2024-01-16T03:58:05;5.40;99.90
25504;DHT22;13410;52.114;5.718;2024-01-16T04:00:31;5.30;99.90
25504;DHT22;13410;52.114;5.718;2024-01-16T04:02:57;5.20;99.90
25504;DHT22;13410;52.114;5.718;2024-01-16T04:05:23;5.20;99.90
25504;DHT22;13410;52.114;5.718;2024-01-16T04:07:49;5.40;99.90
25504;DHT22;13410;52.114;5.718;2024-01-16T04:10:14;5.20;99.90
25504;DHT22;13410;52.114;5.718;2024-01-16T04:12:40;5.30;99.90
25504;DHT22;13410;52.114;5.718;2024-01-16T04:15:06;5.40;99.90
25504;DHT22;13410;52.114;5.718;2024-01-16T04:17:31;5.60;99.90
25504;DHT22;13410;52.114;5.718;2024-01-16T04:19:57;5.70;99.90
25504;DHT22;13410;52.114;5.718;2024-01-16T04:22:23;5.70;99.90
25504;DHT22;13410;52.114;5.718;2024-01-16T04:24:48;5.80;99.90
25504;DHT22;13410;52.114;5.718;2024-01-16T04:27:14;5.90;99.90
25504;DHT22;13410;52.114;5.718;2024-01-16T04:29:40;5.90;99.90
25504;DHT22;13410;52.114;5.718;2024-01-16T04:32:06;5.90;99.90
25504;DHT22;13410;52.114;5.718;2024-01-16T04:34:31;6.00;99.90
25504;DHT22;13410;52.114;5.718;2024-01-16T04:36:57;5.80;99.90
25504;DHT22;13410;52.114;5.718;2024-01-16T04:39:22;5.80;99.90
25504;DHT22;13410;52.114;5.718;2024-01-16T04:41:49;5.90;99.90
25504;DHT22;13410;52.114;5.718;2024-01-16T04:44:14;5.80;99.90
25504;DHT22;13410;52.114;5.718;2024-01-16T04:46:40;5.80;99.90
25504;DHT22;13410;52.114;5.718;2024-01-16T04:49:05;5.80;99.90
25504;DHT22;13410;52.114;5.718;2024-01-16T04:51:31;5.70;99.90
25504;DHT22;13410;52.114;5.718;2024-01-16T04:53:57;5.60;99.90
25504;DHT22;13410;52.114;5.718;2024-01-16T04:56:22;5.70;99.90
25504;DHT22;13410;52.114;5.718;2024-01-16T04:58:48;5.70;99.90
25504;DHT22;13410;52.114;5.718;2024-01-16T05:01:14;5.80;99.90
25504;DHT22;13410;52.114;5.718;2024-01-16T05:03:39;5.80;99.90
25504;DHT22;13410;52.114;5.718;2024-01-16T05:06:05;5.70;99.90
25504;DHT22;13410;52.114;5.718;2024-01-16T05:08:37;5.80;99.90
25504;DHT22;13410;52.114;5.718;2024-01-16T05:11:02;5.90;99.90
25504;DHT22;13410;52.114;5.718;2024-01-16T05:13:28;5.90;99.90
25504;DHT22;13410;52.114;5.718;2024-01-16T05:15:54;5.80;99.90
25504;DHT22;13410;52.114;5.718;2024-01-16T05:18:19;5.80;99.90
25504;DHT22;13410;52.114;5.718;2024-01-16T05:20:45;5.80;99.90
25504;DHT22;13410;52.114;5.718;2024-01-16T05:23:10;5.80;99.90
25504;DHT22;13410;52.114;5.718;2024-01-16T05:25:36;5.80;99.90
25504;DHT22;13410;52.114;5.718;2024-01-16T05:28:03;5.80;99.90
25504;DHT22;13410;52.114;5.718;2024-01-16T05:30:29;5.80;99.90
25504;DHT22;13410;52.114;5.718;2024-01-16T05:32:54;6.00;99.90
25504;DHT22;13410;52.114;5.718;2024-01-16T05:35:20;6.10;99.90
25504;DHT22;13410;52.114;5.718;2024-01-16T05:37:46;6.10;99.90
25504;DHT22;13410;52.114;5.718;2024-01-16T05:40:12;6.20;99.90
25504;DHT22;13410;52.114;5.718;2024-01-16T05:42:38;6.00;99.90
25504;DHT22;13410;52.114;5.718;2024-01-16T05:45:04;6.10;99.90
25504;DHT22;13410;52.114;5.718;2024-01-16T05:47:29;6.10;99.90
25504;DHT22;13410;52.114;5.718;2024-01-16T05:49:56;6.30;99.90
25504;DHT22;13410;52.114;5.718;2024-01-16T05:52:22;6.20;99.90
25504;DHT22;13410;52.114;5.718;2024-01-16T05:54:48;6.20;99.90
25504;DHT22;13410;52.114;5.718;2024-01-16T05:57:13;6.20;99.90
25504;DHT22;13410;52.114;5.718;2024-01-16T05:59:39;6.10;99.90
25504;DHT22;13410;52.114;5.718;2024-01-16T06:02:05;6.20;99.90
25504;DHT22;13410;52.114;5.718;2024-01-16T06:04:30;6.10;99.90
25504;DHT22;13410;52.114;5.718;2024-01-16T06:06:56;6.00;99.90
25504;DHT22;13410;52.114;5.718;2024-01-16T06:09:22;6.00;99.90
25504;DHT22;13410;52.114;5.718;2024-01-16T06:11:47;6.10;99.90
25504;DHT22;13410;52.114;5.718;2024-01-16T06:14:13;6.00;99.90
25504;DHT22;13410;52.114;5.718;2024-01-16T06:16:40;5.90;99.90
25504;DHT22;13410;52.114;5.718;2024-01-16T06:19:06;5.80;99.90
25504;DHT22;13410;52.114;5.718;2024-01-16T06:21:33;5.80;99.90
25504;DHT22;13410;52.114;5.718;2024-01-16T06:23:59;5.80;99.90
25504;DHT22;13410;52.114;5.718;2024-01-16T06:26:24;5.90;99.90
25504;DHT22;13410;52.114;5.718;2024-01-16T06:28:50;5.80;99.90
25504;DHT22;13410;52.114;5.718;2024-01-16T06:31:16;5.80;99.90
25504;DHT22;13410;52.114;5.718;2024-01-16T06:33:43;5.80;99.90
25504;DHT22;13410;52.114;5.718;2024-01-16T06:36:08;5.90;99.90
25504;DHT22;13410;52.114;5.718;2024-01-16T06:38:34;5.90;99.90
25504;DHT22;13410;52.114;5.718;2024-01-16T06:40:59;5.90;99.90
25504;DHT22;13410;52.114;5.718;2024-01-16T06:43:26;5.80;99.90
25504;DHT22;13410;52.114;5.718;2024-01-16T06:45:51;5.80;99.90
25504;DHT22;13410;52.114;5.718;2024-01-16T06:48:17;5.80;99.90
25504;DHT22;13410;52.114;5.718;2024-01-16T06:50:42;5.80;99.90
25504;DHT22;13410;52.114;5.718;2024-01-16T06:53:08;5.80;99.90
25504;DHT22;13410;52.114;5.718;2024-01-16T06:55:34;5.90;99.90
25504;DHT22;13410;52.114;5.718;2024-01-16T06:57:59;5.90;99.90
25504;DHT22;13410;52.114;5.718;2024-01-16T07:00:25;6.00;99.90
25504;DHT22;13410;52.114;5.718;2024-01-16T07:02:55;5.80;99.90
25504;DHT22;13410;52.114;5.718;2024-01-16T07:05:21;5.90;99.90
25504;DHT22;13410;52.114;5.718;2024-01-16T07:07:47;5.90;99.90
25504;DHT22;13410;52.114;5.718;2024-01-16T07:10:12;5.90;99.90
25504;DHT22;13410;52.114;5.718;2024-01-16T07:12:45;5.70;99.90
25504;DHT22;13410;52.114;5.718;2024-01-16T07:15:11;5.80;99.90
25504;DHT22;13410;52.114;5.718;2024-01-16T07:17:37;5.80;99.90
25504;DHT22;13410;52.114;5.718;2024-01-16T07:20:03;5.90;99.90
25504;DHT22;13410;52.114;5.718;2024-01-16T07:22:29;6.00;99.90
25504;DHT22;13410;52.114;5.718;2024-01-16T07:24:56;6.00;99.90
25504;DHT22;13410;52.114;5.718;2024-01-16T07:27:21;6.10;99.90
25504;DHT22;13410;52.114;5.718;2024-01-16T07:29:47;6.20;99.90
25504;DHT22;13410;52.114;5.718;2024-01-16T07:32:12;6.30;99.90
25504;DHT22;13410;52.114;5.718;2024-01-16T07:34:38;6.40;99.90
25504;DHT22;13410;52.114;5.718;2024-01-16T07:37:04;6.30;99.90
25504;DHT22;13410;52.114;5.718;2024-01-16T07:39:29;6.50;99.90
25504;DHT22;13410;52.114;5.718;2024-01-16T07:41:55;6.50;99.90
25504;DHT22;13410;52.114;5.718;2024-01-16T07:44:21;6.60;99.90
25504;DHT22;13410;52.114;5.718;2024-01-16T07:46:46;6.30;99.90
25504;DHT22;13410;52.114;5.718;2024-01-16T07:49:12;6.30;99.90
25504;DHT22;13410;52.114;5.718;2024-01-16T07:51:37;6.40;99.90
25504;DHT22;13410;52.114;5.718;2024-01-16T07:54:09;6.40;99.90
25504;DHT22;13410;52.114;5.718;2024-01-16T07:56:35;6.50;99.90
25504;DHT22;13410;52.114;5.718;2024-01-16T07:59:01;6.50;99.90
25504;DHT22;13410;52.114;5.718;2024-01-16T08:01:28;6.60;99.90
25504;DHT22;13410;52.114;5.718;2024-01-16T08:03:55;6.60;99.90
25504;DHT22;13410;52.114;5.718;2024-01-16T08:06:21;6.70;99.90
25504;DHT22;13410;52.114;5.718;2024-01-16T08:08:47;6.70;99.90
25504;DHT22;13410;52.114;5.718;2024-01-16T08:11:14;6.70;99.90
25504;DHT22;13410;52.114;5.718;2024-01-16T08:13:40;6.70;99.90
25504;DHT22;13410;52.114;5.718;2024-01-16T08:16:05;6.70;99.90
25504;DHT22;13410;52.114;5.718;2024-01-16T08:18:31;6.70;99.90
25504;DHT22;13410;52.114;5.718;2024-01-16T08:20:57;6.70;99.90
25504;DHT22;13410;52.114;5.718;2024-01-16T08:23:23;6.70;99.90
25504;DHT22;13410;52.114;5.718;2024-01-16T08:25:48;6.60;99.90
25504;DHT22;13410;52.114;5.718;2024-01-16T08:28:14;6.70;99.90
25504;DHT22;13410;52.114;5.718;2024-01-16T08:30:40;6.70;99.90
25504;DHT22;13410;52.114;5.718;2024-01-16T08:33:06;6.70;99.90
25504;DHT22;13410;52.114;5.718;2024-01-16T08:35:32;6.70;99.90
25504;DHT22;13410;52.114;5.718;2024-01-16T08:37:58;6.80;99.90
25504;DHT22;13410;52.114;5.718;2024-01-16T08:40:24;6.90;99.90
25504;DHT22;13410;52.114;5.718;2024-01-16T08:42:50;6.60;99.90
25504;DHT22;13410;52.114;5.718;2024-01-16T08:45:20;6.60;99.90
25504;DHT22;13410;52.114;5.718;2024-01-16T08:47:46;6.60;99.90
25504;DHT22;13410;52.114;5.718;2024-01-16T08:50:12;6.40;99.90
25504;DHT22;13410;52.114;5.718;2024-01-16T08:52:37;6.40;99.90
25504;DHT22;13410;52.114;5.718;2024-01-16T08:55:04;6.50;99.90
25504;DHT22;13410;52.114;5.718;2024-01-16T08:57:30;6.50;99.90
25504;DHT22;13410;52.114;5.718;2024-01-16T08:59:55;6.30;99.90
25504;DHT22;13410;52.114;5.718;2024-01-16T09:02:21;6.60;99.90
25504;DHT22;13410;52.114;5.718;2024-01-16T09:04:48;6.50;99.90
25504;DHT22;13410;52.114;5.718;2024-01-16T09:07:16;6.50;99.90
25504;DHT22;13410;52.114;5.718;2024-01-16T09:09:42;6.60;99.90
25504;DHT22;13410;52.114;5.718;2024-01-16T09:12:09;6.60;99.90
25504;DHT22;13410;52.114;5.718;2024-01-16T09:14:34;6.70;99.90
25504;DHT22;13410;52.114;5.718;2024-01-16T09:17:00;6.70;99.90
25504;DHT22;13410;52.114;5.718;2024-01-16T09:19:26;6.70;99.90
25504;DHT22;13410;52.114;5.718;2024-01-16T09:21:51;6.80;99.90
25504;DHT22;13410;52.114;5.718;2024-01-16T09:24:17;7.00;99.90
25504;DHT22;13410;52.114;5.718;2024-01-16T09:26:44;6.90;99.90
25504;DHT22;13410;52.114;5.718;2024-01-16T09:29:10;6.80;99.90
25504;DHT22;13410;52.114;5.718;2024-01-16T09:31:36;6.80;99.90
25504;DHT22;13410;52.114;5.718;2024-01-16T09:34:05;6.80;99.90
25504;DHT22;13410;52.114;5.718;2024-01-16T09:36:31;6.80;99.90
25504;DHT22;13410;52.114;5.718;2024-01-16T09:38:57;6.80;99.90
25504;DHT22;13410;52.114;5.718;2024-01-16T09:41:23;6.70;99.90
25504;DHT22;13410;52.114;5.718;2024-01-16T09:43:49;6.80;99.90
25504;DHT22;13410;52.114;5.718;2024-01-16T09:46:17;6.90;99.90
25504;DHT22;13410;52.114;5.718;2024-01-16T09:48:46;6.80;99.90
25504;DHT22;13410;52.114;5.718;2024-01-16T09:51:12;6.80;99.90
25504;DHT22;13410;52.114;5.718;2024-01-16T09:53:42;7.10;99.90
25504;DHT22;13410;52.114;5.718;2024-01-16T09:56:14;7.20;99.90
25504;DHT22;13410;52.114;5.718;2024-01-16T09:58:41;7.30;99.90
25504;DHT22;13410;52.114;5.718;2024-01-16T10:01:08;7.30;99.90
25504;DHT22;13410;52.114;5.718;2024-01-16T10:03:35;7.60;99.90
25504;DHT22;13410;52.114;5.718;2024-01-16T10:06:05;7.70;99.90
25504;DHT22;13410;52.114;5.718;2024-01-16T10:08:31;7.70;99.90
25504;DHT22;13410;52.114;5.718;2024-01-16T10:10:58;7.70;99.90
25504;DHT22;13410;52.114;5.718;2024-01-16T10:13:24;7.90;99.90
25504;DHT22;13410;52.114;5.718;2024-01-16T10:15:53;8.00;99.90
25504;DHT22;13410;52.114;5.718;2024-01-16T10:20:50;7.90;99.90
25504;DHT22;13410;52.114;5.718;2024-01-16T10:23:29;7.80;99.90
25504;DHT22;13410;52.114;5.718;2024-01-16T10:26:11;7.60;99.90
25504;DHT22;13410;52.114;5.718;2024-01-16T10:28:41;7.60;99.90
25504;DHT22;13410;52.114;5.718;2024-01-16T10:31:08;7.60;99.90
25504;DHT22;13410;52.114;5.718;2024-01-16T10:33:34;7.60;99.90
25504;DHT22;13410;52.114;5.718;2024-01-16T10:36:10;7.60;99.90
25504;DHT22;13410;52.114;5.718;2024-01-16T10:38:40;7.70;99.90
25504;DHT22;13410;52.114;5.718;2024-01-16T10:41:16;7.70;99.90
25504;DHT22;13410;52.114;5.718;2024-01-16T10:43:43;7.80;99.90
25504;DHT22;13410;52.114;5.718;2024-01-16T10:46:17;7.60;99.90
25504;DHT22;13410;52.114;5.718;2024-01-16T10:48:44;7.80;99.90
25504;DHT22;13410;52.114;5.718;2024-01-16T10:51:12;7.90;99.90
25504;DHT22;13410;52.114;5.718;2024-01-16T10:53:42;8.00;99.90
25504;DHT22;13410;52.114;5.718;2024-01-16T10:56:17;8.10;99.90
25504;DHT22;13410;52.114;5.718;2024-01-16T10:58:44;8.00;99.90
25504;DHT22;13410;52.114;5.718;2024-01-16T11:01:14;8.00;99.90
25504;DHT22;13410;52.114;5.718;2024-01-16T11:03:48;8.00;99.90
25504;DHT22;13410;52.114;5.718;2024-01-16T11:06:15;8.00;99.90
25504;DHT22;13410;52.114;5.718;2024-01-16T11:08:42;8.00;99.90
25504;DHT22;13410;52.114;5.718;2024-01-16T11:11:08;8.00;99.90
25504;DHT22;13410;52.114;5.718;2024-01-16T11:13:35;8.10;99.90
25504;DHT22;13410;52.114;5.718;2024-01-16T11:16:04;8.10;99.90
25504;DHT22;13410;52.114;5.718;2024-01-16T11:18:33;8.20;99.90
25504;DHT22;13410;52.114;5.718;2024-01-16T11:20:59;8.50;99.90
25504;DHT22;13410;52.114;5.718;2024-01-16T11:23:25;8.40;99.90
25504;DHT22;13410;52.114;5.718;2024-01-16T11:25:51;8.50;99.90
25504;DHT22;13410;52.114;5.718;2024-01-16T11:28:17;8.60;99.90
25504;DHT22;13410;52.114;5.718;2024-01-16T11:30:44;8.60;99.90
25504;DHT22;13410;52.114;5.718;2024-01-16T11:35:59;8.70;99.90
25504;DHT22;13410;52.114;5.718;2024-01-16T11:38:25;8.90;99.90
25504;DHT22;13410;52.114;5.718;2024-01-16T11:40:54;9.00;99.90
25504;DHT22;13410;52.114;5.718;2024-01-16T11:46:08;9.30;99.90
25504;DHT22;13410;52.114;5.718;2024-01-16T11:48:36;9.30;99.90
25504;DHT22;13410;52.114;5.718;2024-01-16T11:51:23;9.20;99.90
25504;DHT22;13410;52.114;5.718;2024-01-16T11:53:49;9.30;99.90
25504;DHT22;13410;52.114;5.718;2024-01-16T12:02:11;9.00;99.90
25504;DHT22;13410;52.114;5.718;2024-01-16T12:04:37;8.90;99.90
25504;DHT22;13410;52.114;5.718;2024-01-16T12:07:03;8.90;99.90
25504;DHT22;13410;52.114;5.718;2024-01-16T12:09:29;9.00;99.90
25504;DHT22;13410;52.114;5.718;2024-01-16T12:12:00;9.10;99.90
25504;DHT22;13410;52.114;5.718;2024-01-16T12:14:27;9.20;99.90
25504;DHT22;13410;52.114;5.718;2024-01-16T12:16:53;9.30;99.90
25504;DHT22;13410;52.114;5.718;2024-01-16T12:19:33;9.50;99.90
25504;DHT22;13410;52.114;5.718;2024-01-16T12:21:59;9.60;99.90
25504;DHT22;13410;52.114;5.718;2024-01-16T12:24:24;9.70;99.90
25504;DHT22;13410;52.114;5.718;2024-01-16T12:26:50;9.60;99.90
25504;DHT22;13410;52.114;5.718;2024-01-16T12:29:17;9.70;99.90
25504;DHT22;13410;52.114;5.718;2024-01-16T12:31:43;9.80;99.90
25504;DHT22;13410;52.114;5.718;2024-01-16T12:34:09;9.70;99.90
25504;DHT22;13410;52.114;5.718;2024-01-16T12:36:36;9.50;99.90
25504;DHT22;13410;52.114;5.718;2024-01-16T12:39:02;9.30;99.90
25504;DHT22;13410;52.114;5.718;2024-01-16T12:41:32;9.10;99.90
25504;DHT22;13410;52.114;5.718;2024-01-16T12:44:00;9.00;99.90
25504;DHT22;13410;52.114;5.718;2024-01-16T12:46:25;8.70;99.90
25504;DHT22;13410;52.114;5.718;2024-01-16T12:48:51;8.60;99.90
25504;DHT22;13410;52.114;5.718;2024-01-16T12:51:21;8.70;99.90
25504;DHT22;13410;52.114;5.718;2024-01-16T12:53:50;8.70;99.90
25504;DHT22;13410;52.114;5.718;2024-01-16T12:56:20;8.60;99.90
25504;DHT22;13410;52.114;5.718;2024-01-16T12:58:48;8.70;99.90
25504;DHT22;13410;52.114;5.718;2024-01-16T13:01:27;8.80;99.90
25504;DHT22;13410;52.114;5.718;2024-01-16T13:03:54;8.80;99.90
25504;DHT22;13410;52.114;5.718;2024-01-16T13:06:23;8.90;99.90
25504;DHT22;13410;52.114;5.718;2024-01-16T13:09:05;9.00;99.90
25504;DHT22;13410;52.114;5.718;2024-01-16T13:11:55;8.90;99.90
25504;DHT22;13410;52.114;5.718;2024-01-16T13:14:21;8.80;99.90
25504;DHT22;13410;52.114;5.718;2024-01-16T13:16:48;8.90;99.90
25504;DHT22;13410;52.114;5.718;2024-01-16T13:19:18;9.00;99.90
25504;DHT22;13410;52.114;5.718;2024-01-16T13:21:44;8.90;99.90
25504;DHT22;13410;52.114;5.718;2024-01-16T13:24:10;8.80;99.90
25504;DHT22;13410;52.114;5.718;2024-01-16T13:26:36;8.80;99.90
25504;DHT22;13410;52.114;5.718;2024-01-16T13:29:02;8.90;99.90
25504;DHT22;13410;52.114;5.718;2024-01-16T13:31:29;8.80;99.90
25504;DHT22;13410;52.114;5.718;2024-01-16T13:33:55;8.80;99.90
25504;DHT22;13410;52.114;5.718;2024-01-16T13:36:22;8.70;99.90
25504;DHT22;13410;52.114;5.718;2024-01-16T13:38:48;8.70;99.90
25504;DHT22;13410;52.114;5.718;2024-01-16T13:41:14;8.60;99.90
25504;DHT22;13410;52.114;5.718;2024-01-16T13:43:40;8.70;99.90
25504;DHT22;13410;52.114;5.718;2024-01-16T13:46:06;8.50;99.90
25504;DHT22;13410;52.114;5.718;2024-01-16T13:48:34;8.50;99.90
25504;DHT22;13410;52.114;5.718;2024-01-16T13:50:59;8.50;99.90
25504;DHT22;13410;52.114;5.718;2024-01-16T13:53:25;8.40;99.90
25504;DHT22;13410;52.114;5.718;2024-01-16T13:55:51;8.10;99.90
25504;DHT22;13410;52.114;5.718;2024-01-16T13:58:17;8.00;99.90
25504;DHT22;13410;52.114;5.718;2024-01-16T14:00:44;8.00;99.90
25504;DHT22;13410;52.114;5.718;2024-01-16T14:03:09;8.00;99.90
25504;DHT22;13410;52.114;5.718;2024-01-16T14:05:35;8.00;99.90
25504;DHT22;13410;52.114;5.718;2024-01-16T14:08:01;8.10;99.90
25504;DHT22;13410;52.114;5.718;2024-01-16T14:10:27;8.10;99.90
25504;DHT22;13410;52.114;5.718;2024-01-16T14:12:53;8.00;99.90
25504;DHT22;13410;52.114;5.718;2024-01-16T14:15:20;8.10;99.90
25504;DHT22;13410;52.114;5.718;2024-01-16T14:17:51;8.00;99.90
25504;DHT22;13410;52.114;5.718;2024-01-16T14:20:19;8.00;99.90
25504;DHT22;13410;52.114;5.718;2024-01-16T14:22:50;8.00;99.90
25504;DHT22;13410;52.114;5.718;2024-01-16T14:25:15;8.10;99.90
25504;DHT22;13410;52.114;5.718;2024-01-16T14:27:55;8.00;99.90
25504;DHT22;13410;52.114;5.718;2024-01-16T14:30:22;8.00;99.90
25504;DHT22;13410;52.114;5.718;2024-01-16T14:32:48;7.90;99.90
25504;DHT22;13410;52.114;5.718;2024-01-16T14:35:14;7.90;99.90
25504;DHT22;13410;52.114;5.718;2024-01-16T14:37:42;7.90;99.90
25504;DHT22;13410;52.114;5.718;2024-01-16T14:40:09;7.80;99.90
25504;DHT22;13410;52.114;5.718;2024-01-16T14:42:39;7.70;99.90
25504;DHT22;13410;52.114;5.718;2024-01-16T14:45:05;7.60;99.90
25504;DHT22;13410;52.114;5.718;2024-01-16T14:47:31;7.70;99.90
25504;DHT22;13410;52.114;5.718;2024-01-16T14:49:57;7.80;99.90
25504;DHT22;13410;52.114;5.718;2024-01-16T14:52:24;7.70;99.90
25504;DHT22;13410;52.114;5.718;2024-01-16T14:54:50;7.70;99.90
25504;DHT22;13410;52.114;5.718;2024-01-16T14:57:18;7.60;99.90
25504;DHT22;13410;52.114;5.718;2024-01-16T14:59:43;7.60;99.90
25504;DHT22;13410;52.114;5.718;2024-01-16T15:02:10;7.50;99.90
25504;DHT22;13410;52.114;5.718;2024-01-16T15:04:42;7.50;99.90
25504;DHT22;13410;52.114;5.718;2024-01-16T15:07:09;7.30;99.90
25504;DHT22;13410;52.114;5.718;2024-01-16T15:09:35;7.30;99.90
25504;DHT22;13410;52.114;5.718;2024-01-16T15:12:04;7.30;99.90
25504;DHT22;13410;52.114;5.718;2024-01-16T15:14:32;7.30;99.90
25504;DHT22;13410;52.114;5.718;2024-01-16T15:16:58;7.20;99.90
25504;DHT22;13410;52.114;5.718;2024-01-16T15:19:24;7.20;99.90
25504;DHT22;13410;52.114;5.718;2024-01-16T15:21:49;7.20;99.90
25504;DHT22;13410;52.114;5.718;2024-01-16T15:24:16;7.30;99.90
25504;DHT22;13410;52.114;5.718;2024-01-16T15:26:47;7.20;99.90
25504;DHT22;13410;52.114;5.718;2024-01-16T15:29:13;7.30;99.90
25504;DHT22;13410;52.114;5.718;2024-01-16T15:31:38;7.20;99.90
25504;DHT22;13410;52.114;5.718;2024-01-16T15:34:04;7.20;99.90
25504;DHT22;13410;52.114;5.718;2024-01-16T15:36:29;7.20;99.90
25504;DHT22;13410;52.114;5.718;2024-01-16T15:38:55;7.00;99.90
25504;DHT22;13410;52.114;5.718;2024-01-16T15:41:21;7.00;99.90
25504;DHT22;13410;52.114;5.718;2024-01-16T15:43:47;6.80;99.90
25504;DHT22;13410;52.114;5.718;2024-01-16T15:46:13;6.90;99.90
25504;DHT22;13410;52.114;5.718;2024-01-16T15:48:38;6.80;99.90
25504;DHT22;13410;52.114;5.718;2024-01-16T15:51:04;6.70;99.90
25504;DHT22;13410;52.114;5.718;2024-01-16T15:53:35;6.60;99.90
25504;DHT22;13410;52.114;5.718;2024-01-16T15:56:01;6.50;99.90